Time;durP1;ratioP1;P1;durP2;ratioP2;P2;SDS_P1;SDS_P2;PMS_P1;PMS_P2;Temp;Humidity;BMP_temperature;BMP_pressure;BME280_temperature;BME280_humidity;BME280_pressure;Samples;Min_cycle;Max_cycle;Signal;HPM_P1;HPM_P2
2023/12/31 00:00:19;;;;;;;28.05;13.65;;;;;;;;;;5006815;28;20058;-68
2023/12/31 00:03:06;;;;;;;27.40;14.50;;;;;;;;;;5003857;28;20042;-67
2023/12/31 00:05:33;;;;;;;22.70;13.48;;;;;;;;;;5003864;28;20514;-68
2023/12/31 00:08:03;;;;;;;29.20;13.63;;;;;;;;;;5018652;28;20072;-69
2023/12/31 00:10:34;;;;;;;27.45;13.15;;;;;;;;;;4999050;28;20057;-68
2023/12/31 00:13:00;;;;;;;23.83;13.27;;;;;;;;;;5004165;28;20459;-68
2023/12/31 00:15:26;;;;;;;26.08;14.50;;;;;;;;;;5004334;28;20062;-69
2023/12/31 00:17:52;;;;;;;23.48;13.85;;;;;;;;;;5004547;28;20049;-70
2023/12/31 00:20:18;;;;;;;23.05;13.60;;;;;;;;;;5008683;28;20053;-69
2023/12/31 00:22:44;;;;;;;27.95;14.10;;;;;;;;;;5007456;28;20050;-68
2023/12/31 00:25:11;;;;;;;24.63;13.38;;;;;;;;;;4997145;28;20507;-71
2023/12/31 00:27:37;;;;;;;22.10;13.10;;;;;;;;;;5008791;28;20053;-69
2023/12/31 00:30:05;;;;;;;22.73;14.20;;;;;;;;;;5007317;28;20484;-69
2023/12/31 00:32:31;;;;;;;26.23;14.40;;;;;;;;;;4997942;28;20081;-68
2023/12/31 00:34:57;;;;;;;23.88;14.25;;;;;;;;;;5018716;28;20173;-69
2023/12/31 00:37:23;;;;;;;25.58;14.32;;;;;;;;;;5017105;28;20506;-69
2023/12/31 00:39:51;;;;;;;26.40;15.15;;;;;;;;;;5001567;28;20128;-69
2023/12/31 00:42:17;;;;;;;25.40;14.48;;;;;;;;;;4999014;28;20073;-68
2023/12/31 00:44:43;;;;;;;24.73;14.48;;;;;;;;;;5007735;28;20136;-68
2023/12/31 00:47:14;;;;;;;28.63;14.88;;;;;;;;;;4999571;28;20173;-68
2023/12/31 00:49:41;;;;;;;25.45;14.98;;;;;;;;;;4999002;28;20346;-68
2023/12/31 00:52:07;;;;;;;23.98;15.40;;;;;;;;;;5021782;28;20042;-69
2023/12/31 00:54:34;;;;;;;24.77;14.75;;;;;;;;;;4999393;28;20057;-70
2023/12/31 00:56:59;;;;;;;26.42;15.40;;;;;;;;;;5004915;28;20049;-68
2023/12/31 00:59:27;;;;;;;30.90;16.35;;;;;;;;;;5002221;28;20058;-69
2023/12/31 01:01:54;;;;;;;26.75;15.30;;;;;;;;;;5002867;28;20117;-69
2023/12/31 01:04:20;;;;;;;28.58;15.73;;;;;;;;;;5003587;28;20049;-67
2023/12/31 01:06:46;;;;;;;28.88;15.63;;;;;;;;;;5008362;28;20064;-68
2023/12/31 01:09:13;;;;;;;28.73;15.55;;;;;;;;;;5008656;28;20089;-72
2023/12/31 01:11:39;;;;;;;29.05;16.10;;;;;;;;;;5006880;28;20054;-66
2023/12/31 01:14:05;;;;;;;29.02;16.23;;;;;;;;;;5014273;28;20054;-68
2023/12/31 01:16:30;;;;;;;29.60;15.43;;;;;;;;;;5007407;28;20048;-69
2023/12/31 01:19:00;;;;;;;28.73;17.00;;;;;;;;;;5001902;28;20066;-68
2023/12/31 01:21:27;;;;;;;29.60;15.93;;;;;;;;;;4995694;28;20140;-66
2023/12/31 01:23:53;;;;;;;26.85;14.90;;;;;;;;;;4997057;28;20061;-67
2023/12/31 01:26:19;;;;;;;29.00;15.30;;;;;;;;;;5006271;28;20045;-67
2023/12/31 01:28:46;;;;;;;23.90;15.05;;;;;;;;;;5010282;28;20053;-69
2023/12/31 01:31:24;;;;;;;28.40;16.13;;;;;;;;;;5003510;28;20437;-68
2023/12/31 01:33:50;;;;;;;23.48;14.63;;;;;;;;;;4999435;28;20102;-69
2023/12/31 01:36:17;;;;;;;29.58;15.60;;;;;;;;;;4999763;28;20138;-68
2023/12/31 01:38:44;;;;;;;24.13;15.00;;;;;;;;;;5008187;28;20088;-69
2023/12/31 01:41:11;;;;;;;29.33;14.65;;;;;;;;;;4997036;28;20081;-68
2023/12/31 01:43:38;;;;;;;26.15;14.38;;;;;;;;;;5015229;28;20042;-69
2023/12/31 01:46:05;;;;;;;25.50;14.13;;;;;;;;;;5007174;28;20141;-68
2023/12/31 01:48:34;;;;;;;24.38;14.57;;;;;;;;;;5004528;28;20041;-68
2023/12/31 01:51:02;;;;;;;23.85;13.85;;;;;;;;;;5002566;28;20045;-69
2023/12/31 01:53:29;;;;;;;24.02;14.32;;;;;;;;;;5001239;28;20050;-67
2023/12/31 01:55:58;;;;;;;22.77;14.52;;;;;;;;;;5000539;28;20395;-68
2023/12/31 01:58:24;;;;;;;21.30;13.88;;;;;;;;;;5012746;28;20137;-69
2023/12/31 02:00:51;;;;;;;24.00;13.60;;;;;;;;;;4998635;28;20101;-69
2023/12/31 02:03:18;;;;;;;23.45;11.70;;;;;;;;;;4998321;28;20634;-66
2023/12/31 02:05:45;;;;;;;20.63;12.45;;;;;;;;;;4992595;28;20047;-69
2023/12/31 02:08:11;;;;;;;22.30;12.80;;;;;;;;;;4997925;28;20089;-68
2023/12/31 02:10:37;;;;;;;19.50;12.00;;;;;;;;;;4997104;28;20049;-68
2023/12/31 02:13:03;;;;;;;19.95;11.77;;;;;;;;;;5003562;28;20057;-68
2023/12/31 02:15:31;;;;;;;16.42;10.43;;;;;;;;;;5008316;28;20042;-67
2023/12/31 02:18:00;;;;;;;15.95;10.40;;;;;;;;;;5003988;28;20054;-68
2023/12/31 02:20:28;;;;;;;18.77;10.75;;;;;;;;;;4991376;28;20122;-68
2023/12/31 02:22:54;;;;;;;18.33;10.38;;;;;;;;;;4999132;28;20046;-69
2023/12/31 02:25:26;;;;;;;16.58;9.93;;;;;;;;;;5002743;28;20137;-68
2023/12/31 02:27:53;;;;;;;15.77;9.73;;;;;;;;;;4992201;28;20054;-68
2023/12/31 02:30:19;;;;;;;16.83;9.82;;;;;;;;;;5011739;28;20148;-68
2023/12/31 02:32:48;;;;;;;19.77;9.98;;;;;;;;;;4998622;28;20049;-67
2023/12/31 02:35:14;;;;;;;15.93;9.23;;;;;;;;;;4995300;28;21563;-67
2023/12/31 02:37:42;;;;;;;16.15;9.68;;;;;;;;;;4998331;28;20056;-66
2023/12/31 02:40:09;;;;;;;14.55;8.52;;;;;;;;;;5003481;28;20076;-65
2023/12/31 02:42:35;;;;;;;14.75;8.95;;;;;;;;;;4991201;28;20100;-67
2023/12/31 02:45:04;;;;;;;15.77;9.27;;;;;;;;;;5015096;28;20045;-68
2023/12/31 02:47:31;;;;;;;16.63;8.60;;;;;;;;;;5008069;28;20126;-68
2023/12/31 02:49:57;;;;;;;13.43;9.32;;;;;;;;;;4993623;28;20050;-66
2023/12/31 02:52:23;;;;;;;16.58;9.18;;;;;;;;;;5004054;28;20038;-66
2023/12/31 02:54:49;;;;;;;16.00;9.77;;;;;;;;;;5002526;28;20103;-67
2023/12/31 02:57:16;;;;;;;15.98;9.30;;;;;;;;;;5003484;28;20192;-66
2023/12/31 02:59:42;;;;;;;16.45;9.43;;;;;;;;;;5001499;28;20057;-68
2023/12/31 03:02:09;;;;;;;15.32;9.00;;;;;;;;;;5000060;28;20211;-66
2023/12/31 03:04:39;;;;;;;13.85;8.70;;;;;;;;;;5002697;28;20476;-67
2023/12/31 03:07:05;;;;;;;15.63;9.00;;;;;;;;;;4995391;28;20098;-68
2023/12/31 03:09:31;;;;;;;16.40;8.73;;;;;;;;;;5007686;28;20496;-67
2023/12/31 03:11:57;;;;;;;13.90;7.93;;;;;;;;;;5004945;28;20057;-67
2023/12/31 03:14:23;;;;;;;11.20;7.63;;;;;;;;;;5006042;28;20046;-66
2023/12/31 03:16:49;;;;;;;14.13;7.80;;;;;;;;;;5012584;28;20763;-67
2023/12/31 03:19:15;;;;;;;12.77;7.40;;;;;;;;;;5011812;28;20081;-68
2023/12/31 03:21:42;;;;;;;16.77;7.22;;;;;;;;;;5000238;28;20994;-67
2023/12/31 03:24:08;;;;;;;12.02;7.47;;;;;;;;;;5004178;28;20038;-66
2023/12/31 03:26:35;;;;;;;10.15;6.97;;;;;;;;;;5004614;28;20145;-67
2023/12/31 03:29:02;;;;;;;12.00;7.20;;;;;;;;;;5010049;28;20062;-67
2023/12/31 03:31:28;;;;;;;12.40;7.57;;;;;;;;;;5008526;28;20106;-66
2023/12/31 03:33:54;;;;;;;10.93;7.05;;;;;;;;;;5008715;28;20068;-65
2023/12/31 03:36:24;;;;;;;11.43;7.35;;;;;;;;;;4992723;28;20045;-67
2023/12/31 03:38:50;;;;;;;12.13;7.20;;;;;;;;;;5015468;28;20072;-67
2023/12/31 03:41:16;;;;;;;11.65;7.40;;;;;;;;;;5010067;28;20344;-70
2023/12/31 03:43:42;;;;;;;12.95;8.07;;;;;;;;;;5007734;28;20045;-67
2023/12/31 03:46:09;;;;;;;13.60;7.53;;;;;;;;;;5001881;28;20057;-66
2023/12/31 03:48:35;;;;;;;12.52;7.45;;;;;;;;;;5011851;28;20427;-67
2023/12/31 03:51:02;;;;;;;11.25;7.97;;;;;;;;;;5009018;28;20061;-68
2023/12/31 03:53:27;;;;;;;15.45;7.35;;;;;;;;;;4997635;28;20140;-67
2023/12/31 03:55:53;;;;;;;13.25;7.68;;;;;;;;;;5001189;28;20089;-66
2023/12/31 03:58:19;;;;;;;13.05;7.45;;;;;;;;;;4998608;28;20061;-65
2023/12/31 04:00:47;;;;;;;12.48;7.93;;;;;;;;;;5001289;28;20108;-68
2023/12/31 04:03:14;;;;;;;12.35;7.60;;;;;;;;;;5006920;28;20052;-68
2023/12/31 04:05:41;;;;;;;10.68;7.53;;;;;;;;;;4994322;28;20056;-69
2023/12/31 04:08:09;;;;;;;15.40;7.80;;;;;;;;;;5003173;28;20233;-66
2023/12/31 04:10:37;;;;;;;15.00;7.97;;;;;;;;;;5007678;28;20128;-66
2023/12/31 04:13:03;;;;;;;13.00;8.50;;;;;;;;;;5003084;28;20479;-67
2023/12/31 04:15:30;;;;;;;11.50;8.35;;;;;;;;;;5010807;28;20038;-68
2023/12/31 04:17:56;;;;;;;15.10;9.27;;;;;;;;;;5007038;28;20072;-65
2023/12/31 04:20:22;;;;;;;14.50;9.00;;;;;;;;;;5012919;28;20054;-65
2023/12/31 04:22:50;;;;;;;14.00;8.38;;;;;;;;;;4995364;28;20049;-67
2023/12/31 04:25:16;;;;;;;13.10;8.48;;;;;;;;;;5001261;28;20384;-68
2023/12/31 04:27:44;;;;;;;14.05;8.18;;;;;;;;;;5002854;28;20053;-69
2023/12/31 04:30:14;;;;;;;11.90;7.40;;;;;;;;;;5007799;28;20081;-66
2023/12/31 04:32:41;;;;;;;13.50;7.88;;;;;;;;;;4995659;28;20069;-67
2023/12/31 04:35:10;;;;;;;10.93;6.40;;;;;;;;;;4998930;28;20047;-68
2023/12/31 04:37:35;;;;;;;13.15;7.20;;;;;;;;;;4999302;28;20415;-67
2023/12/31 04:40:06;;;;;;;17.17;7.28;;;;;;;;;;5009971;28;20064;-66
2023/12/31 04:42:32;;;;;;;11.48;6.63;;;;;;;;;;5005404;28;20108;-67
2023/12/31 04:45:04;;;;;;;15.00;6.82;;;;;;;;;;4999212;28;20531;-66
2023/12/31 04:47:29;;;;;;;11.00;6.97;;;;;;;;;;5003358;28;20078;-68
2023/12/31 04:49:56;;;;;;;12.95;7.28;;;;;;;;;;5007501;28;20527;-66
2023/12/31 04:52:21;;;;;;;15.00;6.65;;;;;;;;;;5000988;28;20042;-68
2023/12/31 04:54:52;;;;;;;14.35;7.05;;;;;;;;;;5005200;28;20050;-68
2023/12/31 04:57:19;;;;;;;12.80;5.63;;;;;;;;;;4997617;28;20786;-67
2023/12/31 04:59:49;;;;;;;11.18;6.40;;;;;;;;;;4995862;28;20378;-66
2023/12/31 05:02:15;;;;;;;9.23;6.15;;;;;;;;;;5014865;28;20448;-67
2023/12/31 05:04:41;;;;;;;11.48;5.55;;;;;;;;;;5001429;28;20054;-68
2023/12/31 05:07:09;;;;;;;10.68;5.72;;;;;;;;;;5001162;28;20078;-69
2023/12/31 05:09:38;;;;;;;11.95;6.30;;;;;;;;;;5016380;28;20662;-66
2023/12/31 05:12:07;;;;;;;15.10;6.00;;;;;;;;;;4998299;28;20446;-69
2023/12/31 05:14:33;;;;;;;13.68;5.85;;;;;;;;;;5004518;28;20042;-70
2023/12/31 05:16:59;;;;;;;15.35;6.22;;;;;;;;;;5004159;28;20476;-68
2023/12/31 05:19:26;;;;;;;13.75;6.03;;;;;;;;;;5007686;28;20096;-70
2023/12/31 05:21:52;;;;;;;11.00;5.70;;;;;;;;;;4992363;28;20138;-70
2023/12/31 05:24:19;;;;;;;11.75;5.80;;;;;;;;;;5008346;28;20057;-69
2023/12/31 05:26:46;;;;;;;10.63;5.63;;;;;;;;;;5004371;28;20459;-68
2023/12/31 05:29:16;;;;;;;9.77;5.88;;;;;;;;;;5003202;28;20069;-69
2023/12/31 05:31:42;;;;;;;7.65;5.50;;;;;;;;;;5004544;28;20042;-69
2023/12/31 05:34:09;;;;;;;8.85;5.45;;;;;;;;;;5004395;28;20079;-68
2023/12/31 05:36:36;;;;;;;14.02;5.95;;;;;;;;;;5001651;28;20057;-69
2023/12/31 05:39:03;;;;;;;9.07;5.68;;;;;;;;;;5000124;28;20077;-69
2023/12/31 05:41:30;;;;;;;9.98;5.72;;;;;;;;;;5003927;28;20112;-69
2023/12/31 05:43:57;;;;;;;10.35;5.80;;;;;;;;;;5003691;28;20305;-69
2023/12/31 05:46:23;;;;;;;10.45;5.57;;;;;;;;;;5000473;28;20050;-70
2023/12/31 05:48:49;;;;;;;14.15;5.60;;;;;;;;;;4991134;28;20065;-68
2023/12/31 05:51:15;;;;;;;10.88;5.60;;;;;;;;;;5001070;28;20054;-68
2023/12/31 05:53:41;;;;;;;12.70;5.80;;;;;;;;;;5000525;28;20284;-68
2023/12/31 05:56:07;;;;;;;9.38;5.72;;;;;;;;;;4998555;28;20532;-70
2023/12/31 05:58:33;;;;;;;9.63;5.80;;;;;;;;;;5007636;28;20500;-68
2023/12/31 06:01:00;;;;;;;10.30;6.28;;;;;;;;;;5001320;28;20057;-69
2023/12/31 06:03:26;;;;;;;8.68;5.75;;;;;;;;;;5000890;28;20053;-69
2023/12/31 06:05:52;;;;;;;10.80;6.10;;;;;;;;;;5001631;28;20422;-68
2023/12/31 06:08:18;;;;;;;13.23;5.85;;;;;;;;;;5007045;28;20116;-67
2023/12/31 06:10:44;;;;;;;9.40;5.53;;;;;;;;;;4999057;28;20451;-68
2023/12/31 06:13:12;;;;;;;9.15;5.63;;;;;;;;;;5006084;28;20053;-68
2023/12/31 06:15:38;;;;;;;9.55;5.40;;;;;;;;;;4997789;28;20054;-68
2023/12/31 06:18:05;;;;;;;10.52;5.40;;;;;;;;;;5006680;28;20102;-68
2023/12/31 06:20:31;;;;;;;8.57;5.53;;;;;;;;;;5003823;28;20045;-69
2023/12/31 06:22:58;;;;;;;9.88;5.10;;;;;;;;;;5005062;28;20053;-68
2023/12/31 06:25:23;;;;;;;9.52;5.68;;;;;;;;;;5003381;28;20054;-66
2023/12/31 06:27:51;;;;;;;7.85;5.07;;;;;;;;;;5005418;28;20500;-68
2023/12/31 06:30:19;;;;;;;11.07;5.13;;;;;;;;;;5000915;28;20228;-68
2023/12/31 06:32:47;;;;;;;10.80;5.25;;;;;;;;;;5003771;28;20576;-67
2023/12/31 06:35:13;;;;;;;10.43;5.22;;;;;;;;;;5001269;28;20136;-68
2023/12/31 06:37:39;;;;;;;10.23;5.35;;;;;;;;;;5000867;28;20077;-68
2023/12/31 06:40:08;;;;;;;9.05;5.30;;;;;;;;;;5004147;28;20065;-68
2023/12/31 06:42:34;;;;;;;10.77;5.00;;;;;;;;;;4996363;28;20092;-69
2023/12/31 06:45:01;;;;;;;9.18;5.03;;;;;;;;;;5001457;28;20611;-65
2023/12/31 06:47:28;;;;;;;11.65;4.93;;;;;;;;;;4995339;28;20061;-64
2023/12/31 06:49:54;;;;;;;10.07;5.28;;;;;;;;;;4997636;28;20057;-68
2023/12/31 06:52:21;;;;;;;10.02;4.90;;;;;;;;;;4996066;28;20050;-71
2023/12/31 06:54:46;;;;;;;8.05;4.95;;;;;;;;;;4998985;28;20401;-66
2023/12/31 06:57:13;;;;;;;11.93;5.50;;;;;;;;;;4989767;28;20061;-68
2023/12/31 06:59:38;;;;;;;8.75;5.00;;;;;;;;;;5000845;28;20046;-68
2023/12/31 07:02:05;;;;;;;8.20;4.88;;;;;;;;;;5002580;28;20060;-69
2023/12/31 07:04:31;;;;;;;10.05;5.30;;;;;;;;;;5008467;28;20288;-69
2023/12/31 07:06:59;;;;;;;9.27;5.20;;;;;;;;;;5005900;28;20057;-68
2023/12/31 07:09:32;;;;;;;9.07;4.97;;;;;;;;;;5002588;28;20042;-69
2023/12/31 07:11:59;;;;;;;11.00;5.43;;;;;;;;;;4992301;28;20065;-66
2023/12/31 07:14:26;;;;;;;17.75;5.25;;;;;;;;;;4997709;28;20060;-67
2023/12/31 07:16:53;;;;;;;10.85;5.10;;;;;;;;;;5000637;28;20058;-68
2023/12/31 07:19:20;;;;;;;9.35;4.95;;;;;;;;;;5006714;28;20073;-68
2023/12/31 07:21:46;;;;;;;9.93;5.68;;;;;;;;;;4996579;28;20057;-70
2023/12/31 07:24:14;;;;;;;8.98;5.20;;;;;;;;;;5008139;28;20073;-69
2023/12/31 07:26:42;;;;;;;13.00;5.03;;;;;;;;;;4999532;28;20065;-67
2023/12/31 07:29:09;;;;;;;11.85;5.10;;;;;;;;;;5008405;28;20080;-68
2023/12/31 07:31:36;;;;;;;8.55;4.95;;;;;;;;;;5017215;28;20050;-69
2023/12/31 07:34:03;;;;;;;9.60;5.10;;;;;;;;;;5002602;28;20053;-67
2023/12/31 07:36:29;;;;;;;11.85;5.13;;;;;;;;;;5011168;28;20041;-68
2023/12/31 07:38:57;;;;;;;20.30;5.57;;;;;;;;;;5009854;28;20075;-69
2023/12/31 07:41:23;;;;;;;23.02;5.30;;;;;;;;;;4999681;28;20100;-70
2023/12/31 07:43:49;;;;;;;7.10;4.53;;;;;;;;;;4998587;28;20062;-68
2023/12/31 07:46:17;;;;;;;9.95;5.18;;;;;;;;;;5002556;28;20076;-68
2023/12/31 07:48:43;;;;;;;10.10;5.10;;;;;;;;;;4995874;28;20716;-70
2023/12/31 07:51:09;;;;;;;7.75;5.18;;;;;;;;;;4994635;28;20434;-68
2023/12/31 07:53:35;;;;;;;13.48;5.03;;;;;;;;;;4990987;28;20058;-68
2023/12/31 07:56:02;;;;;;;8.88;5.22;;;;;;;;;;4994184;28;20096;-69
2023/12/31 07:58:28;;;;;;;9.90;4.78;;;;;;;;;;5000699;28;20054;-70
2023/12/31 08:00:58;;;;;;;8.98;4.68;;;;;;;;;;4998805;28;20080;-71
2023/12/31 08:03:27;;;;;;;13.85;5.43;;;;;;;;;;4999451;28;20057;-69
2023/12/31 08:05:53;;;;;;;11.52;5.00;;;;;;;;;;4997253;28;20064;-67
2023/12/31 08:08:20;;;;;;;12.75;5.05;;;;;;;;;;5001262;28;20550;-69
2023/12/31 08:10:47;;;;;;;20.90;5.15;;;;;;;;;;4989788;28;20054;-69
2023/12/31 08:13:15;;;;;;;14.48;5.03;;;;;;;;;;4997456;28;20058;-71
2023/12/31 08:15:42;;;;;;;8.35;4.80;;;;;;;;;;5004545;28;20228;-68
2023/12/31 08:18:09;;;;;;;11.35;4.70;;;;;;;;;;4995347;28;20058;-67
2023/12/31 08:20:37;;;;;;;11.05;5.25;;;;;;;;;;4992064;28;20507;-68
2023/12/31 08:23:03;;;;;;;11.77;4.95;;;;;;;;;;4998226;28;20042;-66
2023/12/31 08:25:31;;;;;;;8.63;5.20;;;;;;;;;;4998372;28;20503;-69
2023/12/31 08:27:58;;;;;;;14.85;5.47;;;;;;;;;;4997840;28;20050;-68
2023/12/31 08:30:25;;;;;;;8.60;5.05;;;;;;;;;;4999452;28;20081;-65
2023/12/31 08:32:51;;;;;;;11.02;5.47;;;;;;;;;;4986936;28;20057;-66
2023/12/31 08:35:17;;;;;;;10.77;5.38;;;;;;;;;;4994182;28;20057;-64
2023/12/31 08:37:44;;;;;;;10.95;5.00;;;;;;;;;;4990019;28;20407;-65
2023/12/31 08:40:14;;;;;;;9.13;5.20;;;;;;;;;;4995326;28;20545;-66
2023/12/31 08:42:43;;;;;;;12.60;5.13;;;;;;;;;;4995801;28;20054;-66
2023/12/31 08:45:11;;;;;;;10.88;4.80;;;;;;;;;;4992936;28;20054;-63
2023/12/31 08:47:40;;;;;;;10.73;5.28;;;;;;;;;;4993529;28;20049;-72
2023/12/31 08:50:09;;;;;;;9.40;5.13;;;;;;;;;;4995405;28;20140;-67
2023/12/31 08:52:40;;;;;;;10.85;5.13;;;;;;;;;;5001138;28;20057;-65
2023/12/31 08:55:08;;;;;;;8.98;5.05;;;;;;;;;;4999746;28;20521;-67
2023/12/31 08:57:50;;;;;;;9.70;5.10;;;;;;;;;;4999202;28;20053;-67
2023/12/31 09:00:17;;;;;;;10.40;5.28;;;;;;;;;;4995318;28;20199;-66
2023/12/31 09:02:44;;;;;;;8.80;4.75;;;;;;;;;;4997610;28;20499;-65
2023/12/31 09:05:20;;;;;;;12.25;5.20;;;;;;;;;;4994424;28;20759;-65
2023/12/31 09:08:23;;;;;;;13.82;5.35;;;;;;;;;;4989758;28;20029;-64
2023/12/31 09:11:27;;;;;;;9.65;4.82;;;;;;;;;;4988110;28;20056;-67
2023/12/31 09:13:52;;;;;;;9.30;4.88;;;;;;;;;;4990822;28;20566;-66
2023/12/31 09:16:19;;;;;;;11.82;5.45;;;;;;;;;;4992857;28;20050;-65
2023/12/31 09:19:21;;;;;;;18.65;5.70;;;;;;;;;;4986164;28;20053;-64
2023/12/31 09:21:48;;;;;;;7.65;4.75;;;;;;;;;;4987821;28;20068;-66
2023/12/31 09:24:16;;;;;;;9.98;5.03;;;;;;;;;;4997774;28;20058;-63
2023/12/31 09:26:44;;;;;;;10.18;5.40;;;;;;;;;;4989545;28;20053;-69
2023/12/31 09:29:11;;;;;;;8.80;5.30;;;;;;;;;;4991067;28;20061;-65
2023/12/31 09:31:38;;;;;;;15.73;5.45;;;;;;;;;;4991711;28;20504;-64
2023/12/31 09:34:03;;;;;;;9.00;4.80;;;;;;;;;;4986935;28;20313;-66
2023/12/31 09:36:31;;;;;;;8.93;5.30;;;;;;;;;;4990292;28;20077;-66
2023/12/31 09:38:57;;;;;;;13.68;5.30;;;;;;;;;;4992713;28;20521;-65
2023/12/31 09:41:25;;;;;;;10.80;5.20;;;;;;;;;;4987788;28;20053;-67
2023/12/31 09:43:52;;;;;;;10.10;5.10;;;;;;;;;;4994014;28;20049;-68
2023/12/31 09:46:22;;;;;;;11.88;5.10;;;;;;;;;;4993341;28;20057;-67
2023/12/31 09:48:53;;;;;;;11.90;5.78;;;;;;;;;;4996499;28;20058;-64
2023/12/31 09:51:21;;;;;;;10.82;5.30;;;;;;;;;;4998195;28;20427;-65
2023/12/31 09:53:50;;;;;;;19.70;5.13;;;;;;;;;;4991989;28;20055;-64
2023/12/31 09:56:23;;;;;;;11.65;4.93;;;;;;;;;;4990674;28;20050;-66
2023/12/31 09:58:52;;;;;;;13.10;5.57;;;;;;;;;;4993265;28;20062;-66
2023/12/31 10:01:19;;;;;;;9.85;5.25;;;;;;;;;;4990888;28;20997;-63
2023/12/31 10:03:46;;;;;;;7.38;5.00;;;;;;;;;;5006225;28;20084;-66
2023/12/31 10:06:22;;;;;;;12.57;4.85;;;;;;;;;;4994503;28;20461;-64
2023/12/31 10:08:48;;;;;;;9.15;4.97;;;;;;;;;;4970686;28;20050;-65
2023/12/31 10:11:16;;;;;;;8.43;4.40;;;;;;;;;;4994892;28;20095;-63
2023/12/31 10:13:42;;;;;;;9.77;4.90;;;;;;;;;;4990529;28;21452;-65
2023/12/31 10:16:14;;;;;;;9.63;5.45;;;;;;;;;;4983277;28;20058;-64
2023/12/31 10:18:40;;;;;;;11.57;4.85;;;;;;;;;;4988900;28;20053;-65
2023/12/31 10:21:08;;;;;;;7.82;4.57;;;;;;;;;;4991161;28;20053;-65
2023/12/31 10:23:34;;;;;;;10.88;5.68;;;;;;;;;;5002100;28;20514;-66
2023/12/31 10:26:00;;;;;;;14.70;4.75;;;;;;;;;;5000527;28;20077;-65
2023/12/31 10:28:28;;;;;;;14.05;5.10;;;;;;;;;;4995825;28;20050;-66
2023/12/31 10:30:56;;;;;;;9.18;5.15;;;;;;;;;;4997385;28;20571;-66
2023/12/31 10:33:27;;;;;;;12.93;5.43;;;;;;;;;;4994847;28;20052;-67
2023/12/31 10:36:05;;;;;;;11.80;4.80;;;;;;;;;;4993564;28;20365;-64
2023/12/31 10:38:47;;;;;;;12.23;4.70;;;;;;;;;;4985981;28;20518;-69
2023/12/31 10:41:25;;;;;;;7.45;4.72;;;;;;;;;;4990911;28;20137;-64
2023/12/31 10:43:52;;;;;;;10.52;5.10;;;;;;;;;;4990983;28;20057;-64
2023/12/31 10:46:23;;;;;;;6.60;4.35;;;;;;;;;;4993089;28;20784;-66
2023/12/31 10:49:27;;;;;;;18.35;4.50;;;;;;;;;;4998458;28;20404;-64
2023/12/31 10:51:54;;;;;;;10.75;4.82;;;;;;;;;;5000703;28;20120;-67
2023/12/31 10:54:45;;;;;;;8.70;4.65;;;;;;;;;;4996954;28;20058;-66
2023/12/31 10:57:51;;;;;;;7.57;4.43;;;;;;;;;;4991675;28;20072;-66
2023/12/31 11:00:51;;;;;;;9.60;4.57;;;;;;;;;;4997090;28;20104;-67
2023/12/31 11:03:22;;;;;;;6.80;3.88;;;;;;;;;;4981321;28;20049;-67
2023/12/31 11:06:26;;;;;;;9.95;4.95;;;;;;;;;;4996316;28;20183;-65
2023/12/31 11:08:54;;;;;;;10.02;4.80;;;;;;;;;;4994072;28;20050;-70
2023/12/31 11:11:20;;;;;;;8.18;4.90;;;;;;;;;;5004076;28;20078;-63
2023/12/31 11:13:50;;;;;;;8.93;4.70;;;;;;;;;;4996983;28;20058;-65
2023/12/31 11:16:46;;;;;;;6.72;4.47;;;;;;;;;;4999690;28;20460;-65
2023/12/31 11:19:52;;;;;;;11.10;4.53;;;;;;;;;;4996157;28;20419;-67
2023/12/31 11:23:30;;;;;;;7.60;4.38;;;;;;;;;;4992001;28;20064;-66
2023/12/31 11:26:21;;;;;;;9.20;4.28;;;;;;;;;;4987171;28;20608;-70
2023/12/31 11:28:51;;;;;;;7.93;4.70;;;;;;;;;;4999848;28;20050;-67
2023/12/31 11:31:19;;;;;;;8.43;4.40;;;;;;;;;;4997566;28;20057;-67
2023/12/31 11:33:50;;;;;;;8.27;4.10;;;;;;;;;;4994602;28;20050;-66
2023/12/31 11:36:18;;;;;;;10.25;4.68;;;;;;;;;;4997269;28;20146;-65
2023/12/31 11:39:00;;;;;;;7.90;4.40;;;;;;;;;;4996495;28;20049;-65
2023/12/31 11:41:32;;;;;;;9.50;4.40;;;;;;;;;;4993839;28;20084;-68
2023/12/31 11:44:00;;;;;;;9.85;4.72;;;;;;;;;;4996525;28;20038;-68
2023/12/31 11:46:35;;;;;;;9.70;4.35;;;;;;;;;;4999428;28;20050;-65
2023/12/31 11:49:01;;;;;;;6.78;4.18;;;;;;;;;;4988081;28;20693;-68
2023/12/31 11:51:48;;;;;;;8.27;4.90;;;;;;;;;;4988306;28;20057;-63
2023/12/31 11:54:19;;;;;;;6.93;4.10;;;;;;;;;;4994792;28;20630;-64
2023/12/31 11:56:46;;;;;;;8.10;4.35;;;;;;;;;;4990257;28;20046;-64
2023/12/31 11:59:13;;;;;;;6.78;3.70;;;;;;;;;;5001829;28;20050;-66
2023/12/31 12:01:41;;;;;;;9.10;4.43;;;;;;;;;;5009186;28;20068;-68
2023/12/31 12:04:07;;;;;;;8.15;4.05;;;;;;;;;;4998391;28;20447;-64
2023/12/31 12:06:34;;;;;;;6.60;4.25;;;;;;;;;;5005129;28;20054;-65
2023/12/31 12:09:01;;;;;;;7.78;4.43;;;;;;;;;;5005750;28;20057;-68
2023/12/31 12:11:27;;;;;;;11.63;4.30;;;;;;;;;;4993852;28;20050;-67
2023/12/31 12:13:53;;;;;;;7.97;4.05;;;;;;;;;;5000080;28;20041;-66
2023/12/31 12:16:19;;;;;;;5.93;4.20;;;;;;;;;;5004583;28;20064;-66
2023/12/31 12:18:46;;;;;;;10.25;4.30;;;;;;;;;;5006628;28;20054;-65
2023/12/31 12:21:12;;;;;;;7.90;4.05;;;;;;;;;;5003298;28;20887;-66
2023/12/31 12:23:42;;;;;;;11.60;4.15;;;;;;;;;;5004951;28;20053;-66
2023/12/31 12:26:08;;;;;;;6.65;4.43;;;;;;;;;;4996821;28;20046;-67
2023/12/31 12:28:39;;;;;;;5.68;3.80;;;;;;;;;;5000031;28;20431;-66
2023/12/31 12:31:06;;;;;;;11.05;4.22;;;;;;;;;;5000719;28;20436;-67
2023/12/31 12:33:35;;;;;;;9.10;4.03;;;;;;;;;;5000440;28;20049;-65
2023/12/31 12:36:21;;;;;;;5.43;3.85;;;;;;;;;;5001231;28;20520;-65
2023/12/31 12:38:48;;;;;;;6.93;4.10;;;;;;;;;;5004108;28;20546;-67
2023/12/31 12:41:25;;;;;;;7.13;3.83;;;;;;;;;;5002900;28;20100;-67
2023/12/31 12:43:56;;;;;;;6.20;3.58;;;;;;;;;;5001468;28;20041;-69
2023/12/31 12:46:26;;;;;;;6.80;3.78;;;;;;;;;;4985496;28;20051;-71
2023/12/31 12:49:21;;;;;;;6.68;3.95;;;;;;;;;;5000725;28;20503;-67
2023/12/31 12:51:49;;;;;;;6.40;4.10;;;;;;;;;;5011359;28;20565;-67
2023/12/31 12:54:15;;;;;;;6.22;3.38;;;;;;;;;;4998132;28;20373;-68
2023/12/31 12:56:44;;;;;;;8.88;3.70;;;;;;;;;;5003272;28;20680;-68
2023/12/31 12:59:11;;;;;;;6.25;3.58;;;;;;;;;;5005561;28;20041;-66
2023/12/31 13:01:37;;;;;;;6.22;3.53;;;;;;;;;;4991264;28;20052;-67
2023/12/31 13:04:10;;;;;;;5.45;3.03;;;;;;;;;;4997439;28;20043;-68
2023/12/31 13:06:38;;;;;;;5.93;3.20;;;;;;;;;;5003455;28;20034;-64
2023/12/31 13:09:29;;;;;;;4.38;3.08;;;;;;;;;;5000368;28;20575;-67
2023/12/31 13:12:32;;;;;;;11.63;3.63;;;;;;;;;;5000048;28;20049;-66
2023/12/31 13:14:58;;;;;;;8.35;3.17;;;;;;;;;;4995859;28;20050;-63
2023/12/31 13:17:25;;;;;;;5.38;2.78;;;;;;;;;;5000337;28;20262;-68
2023/12/31 13:19:54;;;;;;;7.07;3.13;;;;;;;;;;4998844;28;20423;-66
2023/12/31 13:22:22;;;;;;;5.55;3.03;;;;;;;;;;4997732;28;20058;-66
2023/12/31 13:24:50;;;;;;;10.63;3.47;;;;;;;;;;5001062;28;20101;-72
2023/12/31 13:27:16;;;;;;;5.20;3.50;;;;;;;;;;4994800;28;20767;-68
2023/12/31 13:29:44;;;;;;;7.85;3.22;;;;;;;;;;5020001;28;20049;-67
2023/12/31 13:32:11;;;;;;;7.75;3.15;;;;;;;;;;5000566;28;20484;-68
2023/12/31 13:34:37;;;;;;;8.45;3.00;;;;;;;;;;4999755;28;20149;-66
2023/12/31 13:37:03;;;;;;;5.47;3.50;;;;;;;;;;4993117;28;20092;-69
2023/12/31 13:39:29;;;;;;;4.88;3.22;;;;;;;;;;5004532;28;20049;-68
2023/12/31 13:41:56;;;;;;;4.68;2.90;;;;;;;;;;4999954;28;20054;-66
2023/12/31 13:44:22;;;;;;;9.35;3.55;;;;;;;;;;5006311;28;20172;-67
2023/12/31 13:46:55;;;;;;;7.88;3.20;;;;;;;;;;5004658;28;20558;-69
2023/12/31 13:49:21;;;;;;;5.78;3.03;;;;;;;;;;5001565;28;20080;-68
2023/12/31 13:51:47;;;;;;;6.75;3.28;;;;;;;;;;5004196;28;20054;-68
2023/12/31 13:54:13;;;;;;;7.15;3.40;;;;;;;;;;5006034;28;20038;-68
2023/12/31 13:56:43;;;;;;;5.72;2.97;;;;;;;;;;4996478;28;20053;-73
2023/12/31 13:59:10;;;;;;;5.47;3.45;;;;;;;;;;4993989;28;20188;-70
2023/12/31 14:01:37;;;;;;;7.82;4.28;;;;;;;;;;5005926;28;20729;-67
2023/12/31 14:04:08;;;;;;;8.27;4.28;;;;;;;;;;5008279;28;20053;-70
2023/12/31 14:06:39;;;;;;;7.95;3.50;;;;;;;;;;5001033;28;20316;-65
2023/12/31 14:09:09;;;;;;;5.93;3.53;;;;;;;;;;5005849;28;20042;-70
2023/12/31 14:11:36;;;;;;;5.60;3.33;;;;;;;;;;5002468;28;20056;-69
2023/12/31 14:14:03;;;;;;;6.40;3.13;;;;;;;;;;5001797;28;20144;-67
2023/12/31 14:16:30;;;;;;;7.30;3.30;;;;;;;;;;5006869;28;20053;-66
2023/12/31 14:18:56;;;;;;;7.53;2.95;;;;;;;;;;5006982;28;20108;-68
2023/12/31 14:21:24;;;;;;;6.57;3.00;;;;;;;;;;5007941;28;20092;-67
2023/12/31 14:23:50;;;;;;;8.52;2.45;;;;;;;;;;4997478;28;20073;-69
2023/12/31 14:26:17;;;;;;;8.85;3.20;;;;;;;;;;4998553;28;20041;-69
2023/12/31 14:28:45;;;;;;;12.32;2.83;;;;;;;;;;5005264;28;20134;-71
2023/12/31 14:31:16;;;;;;;16.30;3.40;;;;;;;;;;5002137;28;20041;-69
2023/12/31 14:33:44;;;;;;;16.42;3.95;;;;;;;;;;4999763;28;20050;-68
2023/12/31 14:36:17;;;;;;;10.52;3.83;;;;;;;;;;5001278;28;20062;-67
2023/12/31 14:38:44;;;;;;;13.73;3.67;;;;;;;;;;5000260;28;20153;-70
2023/12/31 14:41:28;;;;;;;14.75;3.78;;;;;;;;;;5002207;28;20053;-71
2023/12/31 14:43:54;;;;;;;14.10;3.05;;;;;;;;;;4992447;28;20633;-69